sensor_id;sensor_type;location;lat;lon;timestamp;P1;durP1;ratioP1;P2;durP2;ratioP2
56770;SDS011;42641;59.794;17.616;2023-05-07T00:01:08;2.00;;;1.80;;
56770;SDS011;42641;59.794;17.616;2023-05-07T00:03:35;3.60;;;2.20;;
56770;SDS011;42641;59.794;17.616;2023-05-07T00:06:02;2.23;;;2.00;;
56770;SDS011;42641;59.794;17.616;2023-05-07T00:08:29;4.10;;;2.20;;
56770;SDS011;42641;59.794;17.616;2023-05-07T00:10:55;3.57;;;2.47;;
56770;SDS011;42641;59.794;17.616;2023-05-07T00:13:22;3.13;;;2.30;;
56770;SDS011;42641;59.794;17.616;2023-05-07T00:15:48;3.60;;;2.50;;
56770;SDS011;42641;59.794;17.616;2023-05-07T00:18:14;2.50;;;2.30;;
56770;SDS011;42641;59.794;17.616;2023-05-07T00:20:41;3.87;;;2.47;;
56770;SDS011;42641;59.794;17.616;2023-05-07T00:23:08;3.37;;;2.30;;
56770;SDS011;42641;59.794;17.616;2023-05-07T00:25:35;4.07;;;2.67;;
56770;SDS011;42641;59.794;17.616;2023-05-07T00:28:01;2.53;;;2.10;;
56770;SDS011;42641;59.794;17.616;2023-05-07T00:30:29;2.57;;;2.20;;
56770;SDS011;42641;59.794;17.616;2023-05-07T00:32:56;3.27;;;2.17;;
56770;SDS011;42641;59.794;17.616;2023-05-07T00:35:22;2.40;;;2.20;;
56770;SDS011;42641;59.794;17.616;2023-05-07T00:37:49;3.90;;;1.90;;
56770;SDS011;42641;59.794;17.616;2023-05-07T00:40:15;2.57;;;2.10;;
56770;SDS011;42641;59.794;17.616;2023-05-07T00:42:42;3.30;;;2.33;;
56770;SDS011;42641;59.794;17.616;2023-05-07T00:45:13;2.10;;;1.90;;
56770;SDS011;42641;59.794;17.616;2023-05-07T00:47:40;5.37;;;2.07;;
56770;SDS011;42641;59.794;17.616;2023-05-07T00:50:07;2.83;;;2.13;;
56770;SDS011;42641;59.794;17.616;2023-05-07T00:52:36;5.20;;;2.27;;
56770;SDS011;42641;59.794;17.616;2023-05-07T00:55:04;2.20;;;2.00;;
56770;SDS011;42641;59.794;17.616;2023-05-07T00:57:33;3.10;;;1.93;;
56770;SDS011;42641;59.794;17.616;2023-05-07T01:00:04;2.67;;;2.20;;
56770;SDS011;42641;59.794;17.616;2023-05-07T01:02:31;2.77;;;2.00;;
56770;SDS011;42641;59.794;17.616;2023-05-07T01:04:57;2.40;;;1.80;;
56770;SDS011;42641;59.794;17.616;2023-05-07T01:07:24;3.13;;;2.03;;
56770;SDS011;42641;59.794;17.616;2023-05-07T01:09:50;2.67;;;1.90;;
56770;SDS011;42641;59.794;17.616;2023-05-07T01:12:17;5.77;;;2.30;;
56770;SDS011;42641;59.794;17.616;2023-05-07T01:14:44;3.73;;;2.23;;
56770;SDS011;42641;59.794;17.616;2023-05-07T01:17:10;3.37;;;1.90;;
56770;SDS011;42641;59.794;17.616;2023-05-07T01:19:37;3.60;;;2.23;;
56770;SDS011;42641;59.794;17.616;2023-05-07T01:22:07;2.60;;;2.10;;
56770;SDS011;42641;59.794;17.616;2023-05-07T01:24:44;1.93;;;1.77;;
56770;SDS011;42641;59.794;17.616;2023-05-07T01:27:12;1.90;;;1.80;;
56770;SDS011;42641;59.794;17.616;2023-05-07T01:29:39;2.33;;;2.07;;
56770;SDS011;42641;59.794;17.616;2023-05-07T01:32:06;2.00;;;1.70;;
56770;SDS011;42641;59.794;17.616;2023-05-07T01:34:33;2.17;;;1.97;;
56770;SDS011;42641;59.794;17.616;2023-05-07T01:37:02;4.90;;;1.90;;
56770;SDS011;42641;59.794;17.616;2023-05-07T01:39:29;2.20;;;2.00;;
56770;SDS011;42641;59.794;17.616;2023-05-07T01:41:56;2.40;;;2.00;;
56770;SDS011;42641;59.794;17.616;2023-05-07T01:44:24;1.80;;;1.63;;
56770;SDS011;42641;59.794;17.616;2023-05-07T01:46:52;2.23;;;2.03;;
56770;SDS011;42641;59.794;17.616;2023-05-07T01:49:20;2.43;;;2.10;;
56770;SDS011;42641;59.794;17.616;2023-05-07T01:51:46;3.00;;;2.20;;
56770;SDS011;42641;59.794;17.616;2023-05-07T01:54:12;2.23;;;2.03;;
56770;SDS011;42641;59.794;17.616;2023-05-07T01:56:40;2.10;;;1.90;;
56770;SDS011;42641;59.794;17.616;2023-05-07T01:59:07;2.27;;;2.07;;
56770;SDS011;42641;59.794;17.616;2023-05-07T02:01:33;4.20;;;2.20;;
56770;SDS011;42641;59.794;17.616;2023-05-07T02:04:00;2.70;;;1.93;;
56770;SDS011;42641;59.794;17.616;2023-05-07T02:06:28;3.00;;;2.03;;
56770;SDS011;42641;59.794;17.616;2023-05-07T02:09:02;2.23;;;2.00;;
56770;SDS011;42641;59.794;17.616;2023-05-07T02:11:28;4.03;;;1.97;;
56770;SDS011;42641;59.794;17.616;2023-05-07T02:13:55;2.93;;;2.13;;
56770;SDS011;42641;59.794;17.616;2023-05-07T02:16:21;3.10;;;2.47;;
56770;SDS011;42641;59.794;17.616;2023-05-07T02:18:49;3.83;;;2.40;;
56770;SDS011;42641;59.794;17.616;2023-05-07T02:21:16;2.53;;;2.27;;
56770;SDS011;42641;59.794;17.616;2023-05-07T02:23:42;2.53;;;2.13;;
56770;SDS011;42641;59.794;17.616;2023-05-07T02:26:09;2.30;;;1.87;;
56770;SDS011;42641;59.794;17.616;2023-05-07T02:28:37;2.20;;;1.97;;
56770;SDS011;42641;59.794;17.616;2023-05-07T02:31:05;2.73;;;2.23;;
56770;SDS011;42641;59.794;17.616;2023-05-07T02:33:32;3.03;;;2.10;;
56770;SDS011;42641;59.794;17.616;2023-05-07T02:36:05;4.00;;;2.17;;
56770;SDS011;42641;59.794;17.616;2023-05-07T02:38:40;2.33;;;2.10;;
56770;SDS011;42641;59.794;17.616;2023-05-07T02:41:06;5.77;;;2.30;;
56770;SDS011;42641;59.794;17.616;2023-05-07T02:43:33;3.63;;;2.17;;
56770;SDS011;42641;59.794;17.616;2023-05-07T02:46:00;3.40;;;2.20;;
56770;SDS011;42641;59.794;17.616;2023-05-07T02:48:28;2.47;;;2.07;;
56770;SDS011;42641;59.794;17.616;2023-05-07T02:50:54;2.30;;;2.10;;
56770;SDS011;42641;59.794;17.616;2023-05-07T02:53:21;2.50;;;2.10;;
56770;SDS011;42641;59.794;17.616;2023-05-07T02:55:48;3.43;;;2.07;;
56770;SDS011;42641;59.794;17.616;2023-05-07T02:58:14;2.57;;;2.07;;
56770;SDS011;42641;59.794;17.616;2023-05-07T03:00:41;2.97;;;2.10;;
56770;SDS011;42641;59.794;17.616;2023-05-07T03:03:18;3.83;;;2.27;;
56770;SDS011;42641;59.794;17.616;2023-05-07T03:05:46;2.97;;;2.20;;
56770;SDS011;42641;59.794;17.616;2023-05-07T03:08:12;3.03;;;1.70;;
56770;SDS011;42641;59.794;17.616;2023-05-07T03:10:39;2.50;;;2.30;;
56770;SDS011;42641;59.794;17.616;2023-05-07T03:13:06;2.53;;;2.20;;
56770;SDS011;42641;59.794;17.616;2023-05-07T03:15:33;5.03;;;2.27;;
56770;SDS011;42641;59.794;17.616;2023-05-07T03:17:59;2.60;;;2.13;;
56770;SDS011;42641;59.794;17.616;2023-05-07T03:20:26;3.77;;;2.00;;
56770;SDS011;42641;59.794;17.616;2023-05-07T03:22:53;2.77;;;2.30;;
56770;SDS011;42641;59.794;17.616;2023-05-07T03:25:19;2.27;;;2.07;;
56770;SDS011;42641;59.794;17.616;2023-05-07T03:27:46;2.30;;;2.10;;
56770;SDS011;42641;59.794;17.616;2023-05-07T03:30:12;3.03;;;2.73;;
56770;SDS011;42641;59.794;17.616;2023-05-07T03:32:39;4.27;;;2.20;;
56770;SDS011;42641;59.794;17.616;2023-05-07T03:35:09;3.10;;;2.30;;
56770;SDS011;42641;59.794;17.616;2023-05-07T03:37:36;2.87;;;2.10;;
56770;SDS011;42641;59.794;17.616;2023-05-07T03:40:04;2.73;;;2.30;;
56770;SDS011;42641;59.794;17.616;2023-05-07T03:42:38;2.77;;;2.47;;
56770;SDS011;42641;59.794;17.616;2023-05-07T03:45:07;3.87;;;2.17;;
56770;SDS011;42641;59.794;17.616;2023-05-07T03:47:34;2.83;;;2.00;;
56770;SDS011;42641;59.794;17.616;2023-05-07T03:50:01;2.33;;;2.00;;
56770;SDS011;42641;59.794;17.616;2023-05-07T03:52:28;2.90;;;2.50;;
56770;SDS011;42641;59.794;17.616;2023-05-07T03:54:58;4.43;;;2.70;;
56770;SDS011;42641;59.794;17.616;2023-05-07T03:57:25;2.80;;;2.40;;
56770;SDS011;42641;59.794;17.616;2023-05-07T03:59:52;2.87;;;2.43;;
56770;SDS011;42641;59.794;17.616;2023-05-07T04:02:18;4.97;;;2.70;;
56770;SDS011;42641;59.794;17.616;2023-05-07T04:04:45;3.27;;;2.30;;
56770;SDS011;42641;59.794;17.616;2023-05-07T04:07:11;2.57;;;2.37;;
56770;SDS011;42641;59.794;17.616;2023-05-07T04:09:42;5.27;;;2.50;;
56770;SDS011;42641;59.794;17.616;2023-05-07T04:12:09;3.70;;;2.47;;
56770;SDS011;42641;59.794;17.616;2023-05-07T04:14:35;3.53;;;2.50;;
56770;SDS011;42641;59.794;17.616;2023-05-07T04:17:02;3.90;;;3.00;;
56770;SDS011;42641;59.794;17.616;2023-05-07T04:19:29;2.80;;;2.57;;
56770;SDS011;42641;59.794;17.616;2023-05-07T04:21:55;3.17;;;2.87;;
56770;SDS011;42641;59.794;17.616;2023-05-07T04:24:22;2.97;;;2.73;;
56770;SDS011;42641;59.794;17.616;2023-05-07T04:26:49;3.30;;;3.00;;
56770;SDS011;42641;59.794;17.616;2023-05-07T04:29:17;3.17;;;2.53;;
56770;SDS011;42641;59.794;17.616;2023-05-07T04:31:44;2.97;;;2.43;;
56770;SDS011;42641;59.794;17.616;2023-05-07T04:34:11;3.13;;;2.83;;
56770;SDS011;42641;59.794;17.616;2023-05-07T04:36:37;3.87;;;2.97;;
56770;SDS011;42641;59.794;17.616;2023-05-07T04:39:09;3.60;;;2.90;;
56770;SDS011;42641;59.794;17.616;2023-05-07T04:41:36;4.47;;;2.90;;
56770;SDS011;42641;59.794;17.616;2023-05-07T04:44:03;3.00;;;2.70;;
56770;SDS011;42641;59.794;17.616;2023-05-07T04:46:31;3.07;;;2.60;;
56770;SDS011;42641;59.794;17.616;2023-05-07T04:48:58;4.73;;;2.63;;
56770;SDS011;42641;59.794;17.616;2023-05-07T04:51:24;3.60;;;2.67;;
56770;SDS011;42641;59.794;17.616;2023-05-07T04:53:51;4.00;;;2.67;;
56770;SDS011;42641;59.794;17.616;2023-05-07T04:56:18;4.20;;;2.63;;
56770;SDS011;42641;59.794;17.616;2023-05-07T04:58:46;3.33;;;2.90;;
56770;SDS011;42641;59.794;17.616;2023-05-07T05:01:14;3.30;;;2.70;;
56770;SDS011;42641;59.794;17.616;2023-05-07T05:03:41;4.20;;;2.97;;
56770;SDS011;42641;59.794;17.616;2023-05-07T05:06:08;5.03;;;2.93;;
56770;SDS011;42641;59.794;17.616;2023-05-07T05:08:36;5.07;;;2.90;;
56770;SDS011;42641;59.794;17.616;2023-05-07T05:11:03;4.10;;;2.63;;
56770;SDS011;42641;59.794;17.616;2023-05-07T05:13:32;4.13;;;2.60;;
56770;SDS011;42641;59.794;17.616;2023-05-07T05:16:01;3.07;;;2.60;;
56770;SDS011;42641;59.794;17.616;2023-05-07T05:18:30;2.90;;;2.60;;
56770;SDS011;42641;59.794;17.616;2023-05-07T05:20:57;5.83;;;2.70;;
56770;SDS011;42641;59.794;17.616;2023-05-07T05:23:23;3.23;;;2.50;;
56770;SDS011;42641;59.794;17.616;2023-05-07T05:25:54;3.20;;;2.70;;
56770;SDS011;42641;59.794;17.616;2023-05-07T05:28:22;3.10;;;2.70;;
56770;SDS011;42641;59.794;17.616;2023-05-07T05:30:49;5.20;;;2.50;;
56770;SDS011;42641;59.794;17.616;2023-05-07T05:33:16;2.80;;;2.60;;
56770;SDS011;42641;59.794;17.616;2023-05-07T05:35:43;2.97;;;2.57;;
56770;SDS011;42641;59.794;17.616;2023-05-07T05:38:11;3.67;;;2.40;;
56770;SDS011;42641;59.794;17.616;2023-05-07T05:40:38;3.57;;;2.77;;
56770;SDS011;42641;59.794;17.616;2023-05-07T05:43:05;4.23;;;2.60;;
56770;SDS011;42641;59.794;17.616;2023-05-07T05:45:32;4.80;;;2.53;;
56770;SDS011;42641;59.794;17.616;2023-05-07T05:47:59;3.60;;;2.50;;
56770;SDS011;42641;59.794;17.616;2023-05-07T05:50:26;3.10;;;2.43;;
56770;SDS011;42641;59.794;17.616;2023-05-07T05:52:54;2.60;;;2.40;;
56770;SDS011;42641;59.794;17.616;2023-05-07T05:55:20;3.70;;;2.70;;
56770;SDS011;42641;59.794;17.616;2023-05-07T05:57:47;3.73;;;2.70;;
56770;SDS011;42641;59.794;17.616;2023-05-07T06:00:15;3.00;;;2.60;;
56770;SDS011;42641;59.794;17.616;2023-05-07T06:02:45;2.97;;;2.60;;
56770;SDS011;42641;59.794;17.616;2023-05-07T06:05:16;3.03;;;2.73;;
56770;SDS011;42641;59.794;17.616;2023-05-07T06:07:43;2.60;;;2.40;;
56770;SDS011;42641;59.794;17.616;2023-05-07T06:10:10;3.00;;;2.50;;
56770;SDS011;42641;59.794;17.616;2023-05-07T06:12:37;3.00;;;2.47;;
56770;SDS011;42641;59.794;17.616;2023-05-07T06:15:05;5.23;;;3.00;;
56770;SDS011;42641;59.794;17.616;2023-05-07T06:17:32;3.33;;;2.70;;
56770;SDS011;42641;59.794;17.616;2023-05-07T06:19:58;2.87;;;2.57;;
56770;SDS011;42641;59.794;17.616;2023-05-07T06:22:25;3.23;;;2.50;;
56770;SDS011;42641;59.794;17.616;2023-05-07T06:24:52;2.50;;;2.27;;
56770;SDS011;42641;59.794;17.616;2023-05-07T06:27:18;2.30;;;2.10;;
56770;SDS011;42641;59.794;17.616;2023-05-07T06:29:47;3.47;;;2.40;;
56770;SDS011;42641;59.794;17.616;2023-05-07T06:32:16;2.83;;;2.10;;
56770;SDS011;42641;59.794;17.616;2023-05-07T06:34:44;3.67;;;2.13;;
56770;SDS011;42641;59.794;17.616;2023-05-07T06:37:12;2.20;;;1.90;;
56770;SDS011;42641;59.794;17.616;2023-05-07T06:39:52;2.83;;;2.20;;
56770;SDS011;42641;59.794;17.616;2023-05-07T06:42:19;2.87;;;2.33;;
56770;SDS011;42641;59.794;17.616;2023-05-07T06:44:48;3.93;;;1.93;;
56770;SDS011;42641;59.794;17.616;2023-05-07T06:47:16;3.37;;;2.57;;
56770;SDS011;42641;59.794;17.616;2023-05-07T06:49:45;2.60;;;2.40;;
56770;SDS011;42641;59.794;17.616;2023-05-07T06:52:15;2.27;;;1.90;;
56770;SDS011;42641;59.794;17.616;2023-05-07T06:54:42;2.13;;;1.70;;
56770;SDS011;42641;59.794;17.616;2023-05-07T06:57:09;2.70;;;2.27;;
56770;SDS011;42641;59.794;17.616;2023-05-07T06:59:36;1.87;;;1.77;;
56770;SDS011;42641;59.794;17.616;2023-05-07T07:02:05;2.30;;;1.90;;
56770;SDS011;42641;59.794;17.616;2023-05-07T07:04:32;2.73;;;1.83;;
56770;SDS011;42641;59.794;17.616;2023-05-07T07:07:03;1.83;;;1.50;;
56770;SDS011;42641;59.794;17.616;2023-05-07T07:09:30;2.23;;;1.83;;
56770;SDS011;42641;59.794;17.616;2023-05-07T07:11:59;2.33;;;1.60;;
56770;SDS011;42641;59.794;17.616;2023-05-07T07:14:27;2.70;;;1.70;;
56770;SDS011;42641;59.794;17.616;2023-05-07T07:16:54;2.03;;;1.80;;
56770;SDS011;42641;59.794;17.616;2023-05-07T07:19:22;2.83;;;1.80;;
56770;SDS011;42641;59.794;17.616;2023-05-07T07:21:51;5.33;;;1.83;;
56770;SDS011;42641;59.794;17.616;2023-05-07T07:24:18;3.33;;;1.60;;
56770;SDS011;42641;59.794;17.616;2023-05-07T07:26:51;4.90;;;1.50;;
56770;SDS011;42641;59.794;17.616;2023-05-07T07:29:20;2.77;;;1.90;;
56770;SDS011;42641;59.794;17.616;2023-05-07T07:31:47;3.43;;;1.80;;
56770;SDS011;42641;59.794;17.616;2023-05-07T07:34:17;2.23;;;1.70;;
56770;SDS011;42641;59.794;17.616;2023-05-07T07:36:44;3.50;;;1.70;;
56770;SDS011;42641;59.794;17.616;2023-05-07T07:39:11;3.57;;;1.80;;
56770;SDS011;42641;59.794;17.616;2023-05-07T07:41:38;2.90;;;1.73;;
56770;SDS011;42641;59.794;17.616;2023-05-07T07:44:05;1.60;;;1.50;;
56770;SDS011;42641;59.794;17.616;2023-05-07T07:46:35;2.47;;;1.80;;
56770;SDS011;42641;59.794;17.616;2023-05-07T07:49:02;2.10;;;1.90;;
56770;SDS011;42641;59.794;17.616;2023-05-07T07:51:29;1.90;;;1.80;;
56770;SDS011;42641;59.794;17.616;2023-05-07T07:53:57;2.27;;;1.90;;
56770;SDS011;42641;59.794;17.616;2023-05-07T07:56:25;5.70;;;2.03;;
56770;SDS011;42641;59.794;17.616;2023-05-07T07:58:51;2.10;;;1.60;;
56770;SDS011;42641;59.794;17.616;2023-05-07T08:01:19;1.83;;;1.60;;
56770;SDS011;42641;59.794;17.616;2023-05-07T08:03:46;3.17;;;1.90;;
56770;SDS011;42641;59.794;17.616;2023-05-07T08:06:13;1.97;;;1.60;;
56770;SDS011;42641;59.794;17.616;2023-05-07T08:08:40;3.13;;;1.80;;
56770;SDS011;42641;59.794;17.616;2023-05-07T08:11:06;3.80;;;1.80;;
56770;SDS011;42641;59.794;17.616;2023-05-07T08:13:36;3.30;;;1.67;;
56770;SDS011;42641;59.794;17.616;2023-05-07T08:16:04;2.00;;;1.50;;
56770;SDS011;42641;59.794;17.616;2023-05-07T08:18:31;1.93;;;1.63;;
56770;SDS011;42641;59.794;17.616;2023-05-07T08:21:00;1.87;;;1.67;;
56770;SDS011;42641;59.794;17.616;2023-05-07T08:23:27;2.53;;;1.83;;
56770;SDS011;42641;59.794;17.616;2023-05-07T08:25:54;1.93;;;1.77;;
56770;SDS011;42641;59.794;17.616;2023-05-07T08:28:20;2.37;;;1.80;;
56770;SDS011;42641;59.794;17.616;2023-05-07T08:30:48;2.17;;;1.60;;
56770;SDS011;42641;59.794;17.616;2023-05-07T08:33:14;2.87;;;1.43;;
56770;SDS011;42641;59.794;17.616;2023-05-07T08:35:40;1.50;;;1.40;;
56770;SDS011;42641;59.794;17.616;2023-05-07T08:38:08;3.33;;;1.73;;
56770;SDS011;42641;59.794;17.616;2023-05-07T08:40:38;3.07;;;1.67;;
56770;SDS011;42641;59.794;17.616;2023-05-07T08:43:12;2.40;;;1.47;;
56770;SDS011;42641;59.794;17.616;2023-05-07T08:45:40;1.87;;;1.70;;
56770;SDS011;42641;59.794;17.616;2023-05-07T08:48:14;2.87;;;1.60;;
56770;SDS011;42641;59.794;17.616;2023-05-07T08:50:42;4.73;;;1.93;;
56770;SDS011;42641;59.794;17.616;2023-05-07T08:53:10;6.13;;;1.70;;
56770;SDS011;42641;59.794;17.616;2023-05-07T08:55:38;6.07;;;1.70;;
56770;SDS011;42641;59.794;17.616;2023-05-07T08:58:05;2.03;;;1.50;;
56770;SDS011;42641;59.794;17.616;2023-05-07T09:00:34;6.50;;;1.60;;
56770;SDS011;42641;59.794;17.616;2023-05-07T09:03:02;1.43;;;1.33;;
56770;SDS011;42641;59.794;17.616;2023-05-07T09:05:29;2.90;;;1.73;;
56770;SDS011;42641;59.794;17.616;2023-05-07T09:07:58;1.40;;;1.30;;
56770;SDS011;42641;59.794;17.616;2023-05-07T09:10:26;1.37;;;1.20;;
56770;SDS011;42641;59.794;17.616;2023-05-07T09:12:52;1.73;;;1.60;;
56770;SDS011;42641;59.794;17.616;2023-05-07T09:15:19;1.30;;;1.20;;
56770;SDS011;42641;59.794;17.616;2023-05-07T09:17:46;1.93;;;1.10;;
56770;SDS011;42641;59.794;17.616;2023-05-07T09:20:13;1.20;;;1.10;;
56770;SDS011;42641;59.794;17.616;2023-05-07T09:22:39;3.47;;;1.37;;
56770;SDS011;42641;59.794;17.616;2023-05-07T09:25:10;3.43;;;1.33;;
56770;SDS011;42641;59.794;17.616;2023-05-07T09:27:38;1.87;;;1.30;;
56770;SDS011;42641;59.794;17.616;2023-05-07T09:30:05;1.50;;;1.20;;
56770;SDS011;42641;59.794;17.616;2023-05-07T09:32:34;1.33;;;1.23;;
56770;SDS011;42641;59.794;17.616;2023-05-07T09:35:04;5.67;;;1.30;;
56770;SDS011;42641;59.794;17.616;2023-05-07T09:37:31;1.30;;;1.20;;
56770;SDS011;42641;59.794;17.616;2023-05-07T09:39:58;1.67;;;1.43;;
56770;SDS011;42641;59.794;17.616;2023-05-07T09:42:27;1.73;;;1.17;;
56770;SDS011;42641;59.794;17.616;2023-05-07T09:44:56;2.23;;;1.10;;
56770;SDS011;42641;59.794;17.616;2023-05-07T09:47:28;1.30;;;1.20;;
56770;SDS011;42641;59.794;17.616;2023-05-07T09:50:00;1.97;;;1.47;;
56770;SDS011;42641;59.794;17.616;2023-05-07T09:52:34;1.50;;;1.40;;
56770;SDS011;42641;59.794;17.616;2023-05-07T09:55:03;1.50;;;1.23;;
56770;SDS011;42641;59.794;17.616;2023-05-07T09:57:32;1.20;;;1.10;;
56770;SDS011;42641;59.794;17.616;2023-05-07T10:00:04;1.40;;;1.30;;
56770;SDS011;42641;59.794;17.616;2023-05-07T10:02:50;1.87;;;1.30;;
56770;SDS011;42641;59.794;17.616;2023-05-07T10:05:23;2.70;;;1.40;;
56770;SDS011;42641;59.794;17.616;2023-05-07T10:07:53;2.13;;;1.40;;
56770;SDS011;42641;59.794;17.616;2023-05-07T10:10:22;2.10;;;1.23;;
56770;SDS011;42641;59.794;17.616;2023-05-07T10:12:50;3.07;;;1.20;;
56770;SDS011;42641;59.794;17.616;2023-05-07T10:15:25;1.73;;;1.30;;
56770;SDS011;42641;59.794;17.616;2023-05-07T10:17:55;1.30;;;1.20;;
56770;SDS011;42641;59.794;17.616;2023-05-07T10:20:23;2.50;;;1.40;;
56770;SDS011;42641;59.794;17.616;2023-05-07T10:22:54;2.63;;;1.13;;
56770;SDS011;42641;59.794;17.616;2023-05-07T10:25:30;3.27;;;1.20;;
56770;SDS011;42641;59.794;17.616;2023-05-07T10:28:03;1.60;;;1.27;;
56770;SDS011;42641;59.794;17.616;2023-05-07T10:33:22;1.83;;;1.60;;
56770;SDS011;42641;59.794;17.616;2023-05-07T10:35:55;3.33;;;1.50;;
56770;SDS011;42641;59.794;17.616;2023-05-07T10:38:26;1.40;;;1.30;;
56770;SDS011;42641;59.794;17.616;2023-05-07T10:40:54;2.13;;;1.10;;
56770;SDS011;42641;59.794;17.616;2023-05-07T10:43:21;1.33;;;1.20;;
56770;SDS011;42641;59.794;17.616;2023-05-07T10:46:13;1.67;;;1.33;;
56770;SDS011;42641;59.794;17.616;2023-05-07T10:51:35;2.43;;;1.50;;
56770;SDS011;42641;59.794;17.616;2023-05-07T10:54:28;1.70;;;1.60;;
56770;SDS011;42641;59.794;17.616;2023-05-07T10:57:23;1.43;;;1.30;;
56770;SDS011;42641;59.794;17.616;2023-05-07T10:59:57;1.40;;;1.30;;
56770;SDS011;42641;59.794;17.616;2023-05-07T11:05:33;1.88;;;1.30;;
56770;SDS011;42641;59.794;17.616;2023-05-07T11:08:12;2.00;;;1.27;;
56770;SDS011;42641;59.794;17.616;2023-05-07T11:10:49;1.38;;;1.20;;
56770;SDS011;42641;59.794;17.616;2023-05-07T11:13:45;2.00;;;1.30;;
56770;SDS011;42641;59.794;17.616;2023-05-07T11:16:38;1.38;;;1.17;;
56770;SDS011;42641;59.794;17.616;2023-05-07T11:19:47;3.10;;;1.23;;
56770;SDS011;42641;59.794;17.616;2023-05-07T11:22:41;1.08;;;1.08;;
56770;SDS011;42641;59.794;17.616;2023-05-07T11:25:17;1.55;;;1.45;;
56770;SDS011;42641;59.794;17.616;2023-05-07T11:27:51;1.38;;;1.20;;
56770;SDS011;42641;59.794;17.616;2023-05-07T11:30:19;2.33;;;1.52;;
56770;SDS011;42641;59.794;17.616;2023-05-07T11:32:47;3.63;;;1.40;;
56770;SDS011;42641;59.794;17.616;2023-05-07T11:35:16;1.50;;;1.20;;
56770;SDS011;42641;59.794;17.616;2023-05-07T11:37:45;1.00;;;1.00;;
56770;SDS011;42641;59.794;17.616;2023-05-07T11:40:14;2.28;;;1.55;;
56770;SDS011;42641;59.794;17.616;2023-05-07T11:42:41;1.20;;;1.10;;
56770;SDS011;42641;59.794;17.616;2023-05-07T11:45:08;1.98;;;1.27;;
56770;SDS011;42641;59.794;17.616;2023-05-07T11:47:35;1.30;;;1.20;;
56770;SDS011;42641;59.794;17.616;2023-05-07T11:50:04;2.55;;;1.25;;
56770;SDS011;42641;59.794;17.616;2023-05-07T11:52:33;1.77;;;1.30;;
56770;SDS011;42641;59.794;17.616;2023-05-07T11:55:00;2.28;;;1.08;;
56770;SDS011;42641;59.794;17.616;2023-05-07T11:57:29;1.40;;;1.25;;
56770;SDS011;42641;59.794;17.616;2023-05-07T11:59:56;2.45;;;1.10;;
56770;SDS011;42641;59.794;17.616;2023-05-07T12:02:24;2.50;;;1.40;;
56770;SDS011;42641;59.794;17.616;2023-05-07T12:04:52;8.90;;;1.73;;
56770;SDS011;42641;59.794;17.616;2023-05-07T12:07:18;2.00;;;1.38;;
56770;SDS011;42641;59.794;17.616;2023-05-07T12:09:45;2.38;;;1.30;;
56770;SDS011;42641;59.794;17.616;2023-05-07T12:12:13;1.75;;;1.20;;
56770;SDS011;42641;59.794;17.616;2023-05-07T12:14:43;1.45;;;1.20;;
56770;SDS011;42641;59.794;17.616;2023-05-07T12:17:11;2.15;;;1.20;;
56770;SDS011;42641;59.794;17.616;2023-05-07T12:19:39;1.30;;;1.10;;
56770;SDS011;42641;59.794;17.616;2023-05-07T12:22:07;3.90;;;1.35;;
56770;SDS011;42641;59.794;17.616;2023-05-07T12:24:44;1.60;;;1.20;;
56770;SDS011;42641;59.794;17.616;2023-05-07T12:27:16;1.30;;;1.20;;
56770;SDS011;42641;59.794;17.616;2023-05-07T12:29:47;2.17;;;1.40;;
56770;SDS011;42641;59.794;17.616;2023-05-07T12:32:15;1.40;;;1.30;;
56770;SDS011;42641;59.794;17.616;2023-05-07T12:34:43;1.92;;;1.30;;
56770;SDS011;42641;59.794;17.616;2023-05-07T12:37:10;1.35;;;1.20;;
56770;SDS011;42641;59.794;17.616;2023-05-07T12:39:42;1.98;;;1.30;;
56770;SDS011;42641;59.794;17.616;2023-05-07T12:42:14;3.78;;;1.23;;
56770;SDS011;42641;59.794;17.616;2023-05-07T12:44:51;2.35;;;1.20;;
56770;SDS011;42641;59.794;17.616;2023-05-07T12:47:18;2.72;;;1.52;;
56770;SDS011;42641;59.794;17.616;2023-05-07T12:49:44;1.75;;;1.20;;
56770;SDS011;42641;59.794;17.616;2023-05-07T12:52:11;1.23;;;1.10;;
56770;SDS011;42641;59.794;17.616;2023-05-07T12:54:39;1.60;;;1.25;;
56770;SDS011;42641;59.794;17.616;2023-05-07T12:57:09;2.38;;;1.35;;
56770;SDS011;42641;59.794;17.616;2023-05-07T12:59:36;1.38;;;1.20;;
56770;SDS011;42641;59.794;17.616;2023-05-07T13:02:04;1.50;;;1.00;;
56770;SDS011;42641;59.794;17.616;2023-05-07T13:04:31;1.58;;;1.27;;
56770;SDS011;42641;59.794;17.616;2023-05-07T13:06:58;1.27;;;1.17;;
56770;SDS011;42641;59.794;17.616;2023-05-07T13:09:25;2.90;;;1.00;;
56770;SDS011;42641;59.794;17.616;2023-05-07T13:11:52;1.58;;;1.48;;
56770;SDS011;42641;59.794;17.616;2023-05-07T13:14:18;2.40;;;1.35;;
56770;SDS011;42641;59.794;17.616;2023-05-07T13:16:46;4.72;;;1.40;;
56770;SDS011;42641;59.794;17.616;2023-05-07T13:19:13;2.67;;;1.20;;
56770;SDS011;42641;59.794;17.616;2023-05-07T13:21:40;2.42;;;1.23;;
56770;SDS011;42641;59.794;17.616;2023-05-07T13:24:06;3.50;;;1.30;;
56770;SDS011;42641;59.794;17.616;2023-05-07T13:26:33;1.52;;;1.27;;
56770;SDS011;42641;59.794;17.616;2023-05-07T13:29:00;2.63;;;1.30;;
56770;SDS011;42641;59.794;17.616;2023-05-07T13:31:26;1.55;;;1.08;;
56770;SDS011;42641;59.794;17.616;2023-05-07T13:33:54;1.83;;;1.17;;
56770;SDS011;42641;59.794;17.616;2023-05-07T13:36:21;3.05;;;1.10;;
56770;SDS011;42641;59.794;17.616;2023-05-07T13:38:48;1.52;;;1.13;;
56770;SDS011;42641;59.794;17.616;2023-05-07T13:41:14;2.03;;;1.30;;
56770;SDS011;42641;59.794;17.616;2023-05-07T13:43:41;1.65;;;1.45;;
56770;SDS011;42641;59.794;17.616;2023-05-07T13:46:07;4.25;;;1.38;;
56770;SDS011;42641;59.794;17.616;2023-05-07T13:48:34;3.45;;;1.52;;
56770;SDS011;42641;59.794;17.616;2023-05-07T13:51:01;2.05;;;1.30;;
56770;SDS011;42641;59.794;17.616;2023-05-07T13:53:27;2.35;;;1.20;;
56770;SDS011;42641;59.794;17.616;2023-05-07T13:55:54;2.03;;;1.33;;
56770;SDS011;42641;59.794;17.616;2023-05-07T13:58:20;1.20;;;1.10;;
56770;SDS011;42641;59.794;17.616;2023-05-07T14:00:47;1.73;;;1.10;;
56770;SDS011;42641;59.794;17.616;2023-05-07T14:03:13;2.90;;;1.30;;
56770;SDS011;42641;59.794;17.616;2023-05-07T14:05:40;2.95;;;1.20;;
56770;SDS011;42641;59.794;17.616;2023-05-07T14:08:07;2.83;;;1.10;;
56770;SDS011;42641;59.794;17.616;2023-05-07T14:10:34;1.15;;;1.05;;
56770;SDS011;42641;59.794;17.616;2023-05-07T14:13:00;1.95;;;1.20;;
56770;SDS011;42641;59.794;17.616;2023-05-07T14:15:27;2.30;;;1.40;;
56770;SDS011;42641;59.794;17.616;2023-05-07T14:17:53;2.05;;;1.20;;
56770;SDS011;42641;59.794;17.616;2023-05-07T14:20:20;1.40;;;1.30;;
56770;SDS011;42641;59.794;17.616;2023-05-07T14:22:46;1.15;;;1.00;;
56770;SDS011;42641;59.794;17.616;2023-05-07T14:25:13;3.08;;;1.27;;
56770;SDS011;42641;59.794;17.616;2023-05-07T14:27:40;1.23;;;1.00;;
56770;SDS011;42641;59.794;17.616;2023-05-07T14:30:07;2.70;;;1.48;;
56770;SDS011;42641;59.794;17.616;2023-05-07T14:32:33;2.22;;;1.15;;
56770;SDS011;42641;59.794;17.616;2023-05-07T14:35:00;2.13;;;1.35;;
56770;SDS011;42641;59.794;17.616;2023-05-07T14:37:27;4.68;;;1.42;;
56770;SDS011;42641;59.794;17.616;2023-05-07T14:39:53;2.03;;;1.23;;
56770;SDS011;42641;59.794;17.616;2023-05-07T14:42:20;2.22;;;1.33;;
56770;SDS011;42641;59.794;17.616;2023-05-07T14:44:46;1.33;;;1.23;;
56770;SDS011;42641;59.794;17.616;2023-05-07T14:47:14;3.13;;;1.33;;
56770;SDS011;42641;59.794;17.616;2023-05-07T14:49:41;2.50;;;1.35;;